createdAt,value
2023-02-11T17:45:55.148Z,9.73
2023-02-11T17:46:54.835Z,9.64
2023-02-11T17:47:54.784Z,9.63
2023-02-11T17:48:54.721Z,9.69
2023-02-11T17:49:54.684Z,9.67
2023-02-11T17:50:54.636Z,9.58
2023-02-11T17:51:54.572Z,9.56
2023-02-11T17:52:54.523Z,9.66
2023-02-11T17:53:54.474Z,9.66
2023-02-11T17:54:54.441Z,9.59
2023-02-11T17:55:54.378Z,9.56
2023-02-11T17:56:57.761Z,9.66
2023-02-11T17:57:54.296Z,9.64
2023-02-11T17:58:54.240Z,9.70
2023-02-11T17:59:54.192Z,9.69
2023-02-11T18:02:19.919Z,9.63
2023-02-11T18:03:19.854Z,9.73
2023-02-11T18:04:19.931Z,9.67
2023-02-11T18:05:19.762Z,9.69
2023-02-11T18:06:19.721Z,9.69
2023-02-11T18:07:19.693Z,9.69
2023-02-11T18:08:19.628Z,9.69
2023-02-11T18:09:19.570Z,9.62
2023-02-11T18:10:19.682Z,9.72
2023-02-11T18:11:19.488Z,9.72
2023-02-11T18:12:19.669Z,9.70
2023-02-11T18:13:19.415Z,9.73
2023-02-11T18:14:19.353Z,9.74
2023-02-11T18:15:19.306Z,9.72
2023-02-11T18:16:19.329Z,9.72
2023-02-11T18:17:19.209Z,9.73
2023-02-11T18:18:19.184Z,9.81
2023-02-11T18:19:56.114Z,9.82
2023-02-11T18:20:56.001Z,9.73
2023-02-11T18:21:55.958Z,9.80
2023-02-11T18:22:55.906Z,9.80
2023-02-11T18:23:55.861Z,9.77
2023-02-11T18:24:55.814Z,9.82
2023-02-11T18:25:55.767Z,9.84
2023-02-11T18:26:55.722Z,9.80
2023-02-11T18:27:55.685Z,9.85
2023-02-11T18:28:55.631Z,9.82
2023-02-11T18:29:55.636Z,9.91
2023-02-11T18:30:55.557Z,9.82
2023-02-11T18:31:55.600Z,9.77
2023-02-11T18:32:55.465Z,9.85
2023-02-11T18:33:55.430Z,9.88
2023-02-11T18:34:55.364Z,9.85
2023-02-11T18:35:55.337Z,9.91
2023-02-11T18:36:55.273Z,9.91
2023-02-11T18:37:55.237Z,9.87
2023-02-11T18:38:55.194Z,9.95
2023-02-11T18:39:55.200Z,9.94
2023-02-11T18:40:55.102Z,9.95
2023-02-11T18:41:55.060Z,9.87
2023-02-11T18:42:55.008Z,9.91
2023-02-11T18:43:54.966Z,9.85
2023-02-11T18:44:54.932Z,9.90
2023-02-11T18:45:55.237Z,9.91
2023-02-11T18:46:54.832Z,9.88
2023-02-11T18:47:54.784Z,9.91
2023-02-11T18:48:56.152Z,9.88
2023-02-11T18:50:54.670Z,9.82
2023-02-11T18:51:54.615Z,9.90
2023-02-11T18:52:54.571Z,9.91
2023-02-11T18:53:54.515Z,9.90
2023-02-11T18:54:54.480Z,9.92
2023-02-11T18:55:55.134Z,9.92
2023-02-11T18:56:54.384Z,9.90
2023-02-11T18:57:54.339Z,9.90
2023-02-11T18:58:54.301Z,9.99
2023-02-11T18:59:54.344Z,9.85
2023-02-11T19:00:54.264Z,9.94
2023-02-11T19:01:54.487Z,9.90
2023-02-11T19:02:54.122Z,9.91
2023-02-11T19:03:54.068Z,9.91
2023-02-11T19:04:54.026Z,9.90
2023-02-11T19:05:54.344Z,9.90
2023-02-11T19:06:53.962Z,9.90
2023-02-11T19:07:53.893Z,9.91
2023-02-11T19:08:53.876Z,9.84
2023-02-11T19:10:53.831Z,9.95
2023-02-11T19:11:53.714Z,9.90
2023-02-11T19:12:53.671Z,10.00
2023-02-11T19:13:53.622Z,9.91
2023-02-11T19:14:53.581Z,9.94
2023-02-11T19:15:53.893Z,9.92
2023-02-11T19:16:53.632Z,9.91
2023-02-11T19:17:53.448Z,9.91
2023-02-11T19:18:53.396Z,9.94
2023-02-11T19:19:53.475Z,9.88
2023-02-11T19:20:53.308Z,9.90
2023-02-11T19:21:53.294Z,9.94
2023-02-11T19:22:53.235Z,9.94
2023-02-11T19:23:53.180Z,9.99
2023-02-11T19:24:53.132Z,9.90
2023-02-11T19:25:53.387Z,9.90
2023-02-11T19:26:53.044Z,9.91
2023-02-11T19:27:53.001Z,9.94
2023-02-11T19:28:52.950Z,9.90
2023-02-11T19:29:52.909Z,9.92
2023-02-11T19:30:52.960Z,9.90
2023-02-11T19:31:53.070Z,9.95
2023-02-11T19:32:52.785Z,9.90
2023-02-11T19:33:52.728Z,9.99
2023-02-11T19:34:52.681Z,9.90
2023-02-11T19:35:52.986Z,9.90
2023-02-11T19:36:52.596Z,9.92
2023-02-11T19:37:52.562Z,9.91
2023-02-11T19:38:52.523Z,9.92
2023-02-11T19:39:52.463Z,9.91
2023-02-11T19:40:52.416Z,9.88
2023-02-11T19:41:52.374Z,9.91
2023-02-11T19:42:52.326Z,9.91
2023-02-11T19:43:52.283Z,9.90
2023-02-11T19:44:52.245Z,9.92
2023-02-11T19:45:52.604Z,9.91
2023-02-11T19:46:52.145Z,9.99
2023-02-11T19:47:52.118Z,9.88
2023-02-11T19:48:52.068Z,9.94
2023-02-11T19:49:52.012Z,9.95
2023-02-11T19:50:51.967Z,9.87
2023-02-11T19:51:51.931Z,9.88
2023-02-11T19:52:51.897Z,9.90
2023-02-11T19:53:51.846Z,9.91
2023-02-11T19:54:51.805Z,9.88
2023-02-11T19:55:52.068Z,9.88
2023-02-11T19:56:51.698Z,9.87
2023-02-11T19:57:51.653Z,9.90
2023-02-11T19:58:51.612Z,9.84
2023-02-11T19:59:51.565Z,9.85
2023-02-11T20:00:51.517Z,9.91
2023-02-11T20:01:51.569Z,9.80
2023-02-11T20:02:51.495Z,9.87
2023-02-11T20:03:51.392Z,9.85
2023-02-11T20:04:51.339Z,9.88
2023-02-11T20:05:51.655Z,9.87
2023-02-11T20:06:51.265Z,9.88
2023-02-11T20:07:51.216Z,9.87
2023-02-11T20:08:51.280Z,9.88
2023-02-11T20:09:51.119Z,9.85
2023-02-11T20:10:51.103Z,9.80
2023-02-11T20:11:51.037Z,9.85
2023-02-11T20:12:50.980Z,9.85
2023-02-11T20:13:50.937Z,9.88
2023-02-11T20:14:50.888Z,9.85
2023-02-11T20:15:51.232Z,9.94
2023-02-11T20:16:50.910Z,9.77
2023-02-11T20:17:50.768Z,9.80
2023-02-11T20:18:50.707Z,9.77
2023-02-11T20:19:50.668Z,9.85
2023-02-11T20:20:50.618Z,9.82
2023-02-11T20:21:50.624Z,9.88
2023-02-11T20:22:50.530Z,9.84
2023-02-11T20:23:50.493Z,9.88
2023-02-11T20:24:50.441Z,9.82
2023-02-11T20:25:50.868Z,9.76
2023-02-11T20:26:50.366Z,9.82
2023-02-11T20:27:50.308Z,9.85
2023-02-11T20:28:50.261Z,9.80
2023-02-11T20:29:50.214Z,9.82
2023-02-11T20:30:50.229Z,9.88
2023-02-11T20:31:50.420Z,9.88
2023-02-11T20:32:50.081Z,9.85
2023-02-11T20:33:50.049Z,9.77
2023-02-11T20:34:49.989Z,9.82
2023-02-11T20:35:50.151Z,9.87
2023-02-11T20:36:49.906Z,9.81
2023-02-11T20:37:49.866Z,9.85
2023-02-11T20:38:49.809Z,9.81
2023-02-11T20:39:49.767Z,9.80
2023-02-11T20:40:49.721Z,9.74
2023-02-11T20:41:49.722Z,9.81
2023-02-11T20:42:49.656Z,9.85
2023-02-11T20:43:49.584Z,9.81
2023-02-11T20:44:49.545Z,9.82
2023-02-11T20:45:49.960Z,9.77
2023-02-11T20:46:49.516Z,9.77
2023-02-11T20:47:49.413Z,9.77
2023-02-11T20:48:49.362Z,9.76
2023-02-11T20:49:49.316Z,9.80
2023-02-11T20:50:49.270Z,9.84
2023-02-11T20:51:49.225Z,9.81
2023-02-11T20:52:49.182Z,9.74
2023-02-11T20:53:49.141Z,9.77
2023-02-11T20:54:49.094Z,9.76
2023-02-11T20:55:49.321Z,9.80
2023-02-11T20:56:49.025Z,9.76
2023-02-11T20:57:48.991Z,9.80
2023-02-11T20:58:48.999Z,9.73
2023-02-11T20:59:48.902Z,9.77
2023-02-11T21:00:48.846Z,9.76
2023-02-11T21:01:48.903Z,9.73
2023-02-11T21:02:48.743Z,9.69
2023-02-11T21:03:48.690Z,9.72
2023-02-11T21:04:48.645Z,9.76
2023-02-11T21:05:48.600Z,9.72
2023-02-11T21:06:48.553Z,9.76
2023-02-11T21:07:48.509Z,9.74
2023-02-11T21:08:48.462Z,9.70
2023-02-11T21:09:48.423Z,9.70
2023-02-11T21:10:48.375Z,9.63
2023-02-11T21:11:48.340Z,9.76
2023-02-11T21:12:49.925Z,9.74
2023-02-11T21:13:48.239Z,9.70
2023-02-11T21:14:48.222Z,9.70
2023-02-11T21:15:48.222Z,9.70
2023-02-11T21:16:48.117Z,9.73
2023-02-11T21:17:48.060Z,9.73
2023-02-11T21:18:48.013Z,9.73
2023-02-11T21:19:47.971Z,9.76
2023-02-11T21:20:47.930Z,9.72
2023-02-11T21:21:47.885Z,9.72
2023-02-11T21:22:47.836Z,9.70
2023-02-11T21:23:47.802Z,9.73
2023-02-11T21:24:47.748Z,9.63
2023-02-11T21:25:47.702Z,9.70
2023-02-11T21:26:47.658Z,9.69
2023-02-11T21:27:47.614Z,9.72
2023-02-11T21:28:47.569Z,9.73
2023-02-11T21:29:54.178Z,9.70
2023-02-11T21:30:47.564Z,9.66
2023-02-11T21:31:47.511Z,9.74
2023-02-11T21:32:47.393Z,9.66
2023-02-11T21:33:47.347Z,9.72
2023-02-11T21:34:47.301Z,9.59
2023-02-11T21:35:47.265Z,9.64
2023-02-11T21:36:47.209Z,9.64
2023-02-11T21:37:47.172Z,9.67
2023-02-11T21:38:47.120Z,9.72
2023-02-11T21:39:47.087Z,9.69
2023-02-11T21:40:47.029Z,9.63
2023-02-11T21:41:47.003Z,9.73
2023-02-11T21:42:46.944Z,9.62
2023-02-11T21:43:46.904Z,9.66
2023-02-11T21:44:46.852Z,9.69
2023-02-11T21:45:46.911Z,9.63
2023-02-11T21:46:46.859Z,9.67
2023-02-11T21:47:46.727Z,9.69
2023-02-11T21:48:46.694Z,9.70
2023-02-11T21:49:46.630Z,9.69
2023-02-11T21:50:46.591Z,9.73
2023-02-11T21:51:46.543Z,9.63
2023-02-11T21:52:46.490Z,9.76
2023-02-11T21:53:46.461Z,9.73
2023-02-11T21:54:46.411Z,9.70
2023-02-11T21:55:46.394Z,9.69
2023-02-11T21:56:46.315Z,9.66
2023-02-11T21:57:46.271Z,9.66
2023-02-11T21:58:46.228Z,9.70
2023-02-11T21:59:46.187Z,9.64
2023-02-11T22:00:46.220Z,9.67
2023-02-11T22:01:46.089Z,9.69
2023-02-11T22:02:48.246Z,9.66
2023-02-11T22:03:46.006Z,9.63
2023-02-11T22:04:45.996Z,9.63
2023-02-11T22:05:45.914Z,9.72
2023-02-11T22:06:45.863Z,9.72
2023-02-11T22:07:45.818Z,9.72
2023-02-11T22:08:45.772Z,9.66
2023-02-11T22:09:45.729Z,9.69
2023-02-11T22:10:45.683Z,9.73
2023-02-11T22:11:45.643Z,9.70
2023-02-11T22:12:45.594Z,9.72
2023-02-11T22:13:45.548Z,9.72
